createdAt,value
2022-11-28T00:01:41.241Z,12.27
2022-11-28T00:04:11.128Z,11.10
2022-11-28T00:06:45.309Z,12.60
2022-11-28T00:09:16.107Z,11.27
2022-11-28T00:11:45.720Z,12.40
2022-11-28T00:14:14.805Z,12.47
2022-11-28T00:16:43.249Z,13.67
2022-11-28T00:19:12.848Z,13.40
2022-11-28T00:21:41.574Z,15.00
2022-11-28T00:24:10.089Z,12.10
2022-11-28T00:26:42.029Z,12.03
2022-11-28T00:29:11.175Z,11.50
2022-11-28T00:31:43.963Z,12.53
2022-11-28T00:34:13.995Z,13.10
2022-11-28T00:36:43.794Z,13.40
2022-11-28T00:39:12.022Z,12.23
2022-11-28T00:41:41.444Z,12.90
2022-11-28T00:44:09.620Z,13.87
2022-11-28T00:46:38.042Z,13.50
2022-11-28T00:49:06.207Z,13.90
2022-11-28T00:51:35.511Z,11.73
2022-11-28T00:54:05.837Z,11.77
2022-11-28T00:56:35.980Z,12.40
2022-11-28T00:59:05.756Z,11.93
2022-11-28T01:01:35.440Z,12.97
2022-11-28T01:04:07.098Z,13.20
2022-11-28T01:06:37.820Z,12.87
2022-11-28T01:09:08.461Z,13.50
2022-11-28T01:11:38.802Z,12.73
2022-11-28T01:14:08.934Z,11.87
2022-11-28T01:16:37.327Z,11.43
2022-11-28T01:19:05.673Z,11.93
2022-11-28T01:21:34.062Z,12.67
2022-11-28T01:24:02.347Z,10.63
2022-11-28T01:26:31.439Z,13.37
2022-11-28T01:29:01.497Z,14.00
2022-11-28T01:31:31.891Z,15.53
2022-11-28T01:34:00.679Z,14.73
2022-11-28T01:36:29.409Z,11.80
2022-11-28T01:38:57.532Z,11.70
2022-11-28T01:41:28.360Z,11.60
2022-11-28T01:44:00.399Z,11.07
2022-11-28T01:46:30.398Z,9.60
2022-11-28T01:49:02.424Z,11.60
2022-11-28T01:51:31.747Z,12.33
2022-11-28T01:54:00.886Z,12.00
2022-11-28T01:56:34.001Z,12.13
2022-11-28T01:59:05.799Z,11.70
2022-11-28T02:01:35.309Z,12.90
2022-11-28T02:04:05.411Z,11.67
2022-11-28T02:06:34.354Z,12.17
2022-11-28T02:09:02.467Z,10.30
2022-11-28T02:12:03.334Z,12.13
2022-11-28T02:14:49.709Z,10.33
2022-11-28T02:17:31.033Z,11.97
2022-11-28T02:20:34.031Z,8.00
2022-11-28T02:23:09.977Z,13.67
2022-11-28T02:26:18.710Z,11.60
2022-11-28T02:29:14.736Z,8.13
2022-11-28T02:32:10.354Z,8.63
2022-11-28T02:34:47.191Z,8.50
2022-11-28T02:37:23.776Z,8.43
2022-11-28T02:40:02.118Z,11.30
2022-11-28T02:42:38.322Z,10.70
2022-11-28T02:45:12.226Z,12.20
2022-11-28T02:47:46.677Z,10.97
2022-11-28T02:50:19.833Z,10.80
2022-11-28T02:52:51.381Z,11.00
2022-11-28T02:55:20.114Z,11.77
2022-11-28T02:57:50.796Z,11.63
2022-11-28T03:00:29.382Z,7.80
2022-11-28T03:03:19.485Z,12.77
2022-11-28T03:05:52.713Z,9.43
2022-11-28T03:08:47.103Z,11.00
2022-11-28T03:11:21.337Z,10.50
2022-11-28T03:13:58.070Z,11.73
2022-11-28T03:16:31.320Z,7.60
2022-11-28T03:19:09.418Z,12.83
2022-11-28T03:21:41.919Z,11.23
2022-11-28T03:24:17.903Z,11.80
2022-11-28T03:26:50.750Z,11.13
2022-11-28T03:29:24.814Z,11.10
2022-11-28T03:31:57.232Z,12.63
2022-11-28T03:34:32.567Z,9.43
2022-11-28T03:37:04.871Z,10.83
2022-11-28T03:39:37.312Z,11.13
2022-11-28T03:42:10.988Z,13.27
2022-11-28T03:44:45.119Z,11.33
2022-11-28T03:47:13.452Z,10.90
2022-11-28T03:49:48.919Z,9.90
2022-11-28T03:52:22.180Z,9.77
2022-11-28T03:54:54.287Z,10.53
2022-11-28T03:57:30.078Z,12.17
2022-11-28T04:00:02.506Z,11.30
2022-11-28T04:02:35.494Z,10.93
2022-11-28T04:05:16.577Z,11.13
2022-11-28T04:07:48.536Z,11.43
2022-11-28T04:10:23.056Z,12.00
2022-11-28T04:12:58.197Z,11.60
2022-11-28T04:15:34.459Z,11.57
2022-11-28T04:18:11.976Z,12.83
2022-11-28T04:20:46.549Z,13.00
2022-11-28T04:23:21.520Z,12.27
2022-11-28T04:25:55.136Z,10.90
2022-11-28T04:28:26.144Z,12.30
2022-11-28T04:30:56.223Z,11.73
2022-11-28T04:33:26.944Z,11.13
2022-11-28T04:35:57.956Z,9.80
2022-11-28T04:38:29.216Z,11.17
2022-11-28T04:41:04.042Z,12.33
2022-11-28T04:43:36.040Z,12.60
2022-11-28T04:46:10.873Z,11.67
2022-11-28T04:48:39.236Z,12.50
2022-11-28T04:51:20.588Z,11.97
2022-11-28T04:53:55.414Z,12.83
2022-11-28T04:56:28.554Z,13.27
2022-11-28T04:58:57.384Z,11.43
2022-11-28T05:01:28.288Z,11.77
2022-11-28T05:03:56.781Z,11.60
2022-11-28T05:06:28.593Z,12.73
2022-11-28T05:08:56.949Z,13.17
2022-11-28T05:11:25.127Z,11.13
2022-11-28T05:13:53.078Z,12.87
2022-11-28T05:16:22.392Z,12.80
2022-11-28T05:18:50.763Z,10.80
2022-11-28T05:21:18.822Z,13.00
2022-11-28T05:23:48.650Z,10.87
2022-11-28T05:26:18.543Z,12.80
2022-11-28T05:28:47.262Z,12.23
2022-11-28T05:31:15.869Z,10.87
2022-11-28T05:33:43.988Z,12.60
2022-11-28T05:36:14.422Z,11.23
2022-11-28T05:38:43.021Z,10.73
2022-11-28T05:41:20.291Z,7.00
2022-11-28T05:43:48.287Z,14.87
2022-11-28T05:46:16.535Z,8.07
2022-11-28T05:48:44.681Z,11.80
2022-11-28T05:51:13.321Z,11.07
2022-11-28T05:53:41.486Z,11.60
2022-11-28T05:56:10.824Z,10.50
2022-11-28T05:58:40.721Z,13.77
2022-11-28T06:01:13.467Z,13.37
2022-11-28T06:03:41.965Z,10.50
2022-11-28T06:06:13.996Z,11.03
2022-11-28T06:08:43.472Z,12.40
2022-11-28T06:11:12.074Z,12.37
2022-11-28T06:13:42.067Z,13.40
2022-11-28T06:16:11.323Z,11.20
2022-11-28T06:18:39.575Z,12.87
2022-11-28T06:21:08.655Z,12.33
2022-11-28T06:23:37.215Z,11.63
2022-11-28T06:26:07.526Z,12.77
2022-11-28T06:28:37.039Z,12.73
2022-11-28T06:31:10.625Z,13.43
2022-11-28T06:33:38.727Z,13.20
2022-11-28T06:36:08.070Z,12.00
2022-11-28T06:38:36.736Z,13.93
2022-11-28T06:41:07.129Z,11.93
2022-11-28T06:43:35.639Z,13.27
2022-11-28T06:46:03.915Z,12.10
2022-11-28T06:48:33.753Z,11.47
2022-11-28T06:51:04.678Z,12.80
2022-11-28T06:53:32.976Z,12.30
2022-11-28T06:56:10.503Z,13.27
2022-11-28T06:58:38.872Z,13.60
2022-11-28T07:01:08.501Z,12.30
2022-11-28T07:03:38.526Z,13.33
2022-11-28T07:06:07.497Z,11.90
2022-11-28T07:08:35.989Z,12.87
2022-11-28T07:11:12.076Z,11.40
2022-11-28T07:13:40.926Z,13.23
2022-11-28T07:16:10.024Z,12.07
2022-11-28T07:18:39.474Z,12.20
2022-11-28T07:21:08.230Z,11.90
2022-11-28T07:23:36.400Z,12.30
2022-11-28T07:26:05.891Z,12.47
2022-11-28T07:28:35.074Z,11.80
2022-11-28T07:31:05.781Z,11.60
2022-11-28T07:33:35.528Z,12.97
2022-11-28T07:36:08.580Z,11.20
2022-11-28T07:38:37.369Z,11.43
2022-11-28T07:41:06.589Z,12.93
2022-11-28T07:43:34.643Z,11.47
2022-11-28T07:46:05.818Z,12.70
2022-11-28T07:48:33.941Z,12.70
2022-11-28T07:51:05.324Z,12.30
2022-11-28T07:53:34.821Z,10.90
2022-11-28T07:56:04.536Z,11.77
2022-11-28T07:58:33.214Z,11.90
2022-11-28T08:01:01.269Z,12.27
2022-11-28T08:03:29.217Z,13.67
2022-11-28T08:06:03.318Z,13.20
2022-11-28T08:08:33.877Z,10.70
2022-11-28T08:11:05.779Z,14.50
2022-11-28T08:13:34.590Z,14.23
2022-11-28T08:16:05.109Z,11.17
2022-11-28T08:18:33.228Z,12.37
2022-11-28T08:21:05.560Z,11.40
2022-11-28T08:23:34.612Z,12.97
2022-11-28T08:26:04.207Z,12.70
2022-11-28T08:28:32.599Z,12.77
2022-11-28T08:31:04.187Z,13.60
2022-11-28T08:33:32.261Z,13.60
2022-11-28T08:36:00.390Z,12.43
2022-11-28T08:38:28.353Z,12.73
2022-11-28T08:41:03.629Z,11.30
2022-11-28T08:43:31.736Z,8.93
2022-11-28T08:45:59.873Z,10.83
2022-11-28T08:48:28.004Z,12.70
2022-11-28T08:50:56.033Z,10.37
2022-11-28T08:53:24.563Z,12.77
2022-11-28T08:55:52.655Z,12.80
2022-11-28T08:58:21.914Z,12.87
2022-11-28T09:00:50.104Z,11.53
2022-11-28T09:03:21.664Z,12.20
2022-11-28T09:05:50.108Z,12.13
2022-11-28T09:08:20.168Z,11.87
2022-11-28T09:10:49.325Z,12.50
2022-11-28T09:13:17.611Z,12.50
2022-11-28T09:15:51.228Z,10.73
2022-11-28T09:18:20.687Z,11.90
2022-11-28T09:20:48.703Z,12.53
2022-11-28T09:23:16.671Z,12.90
2022-11-28T09:25:44.886Z,13.27
2022-11-28T09:28:12.908Z,13.17
2022-11-28T09:30:41.073Z,12.53
2022-11-28T09:33:12.104Z,12.30
2022-11-28T09:35:40.688Z,12.00
2022-11-28T09:38:08.830Z,12.30
2022-11-28T09:40:39.850Z,12.60
2022-11-28T09:43:16.408Z,11.77
2022-11-28T09:45:46.055Z,11.73
2022-11-28T09:48:26.928Z,11.73
2022-11-28T09:51:00.690Z,11.70
2022-11-28T09:53:35.935Z,10.00
2022-11-28T09:56:10.732Z,11.23
2022-11-28T09:58:45.899Z,11.50
2022-11-28T10:01:19.104Z,12.73
2022-11-28T10:03:57.480Z,12.47
2022-11-28T10:06:30.270Z,11.43
2022-11-28T10:09:22.362Z,12.80
2022-11-28T10:12:03.629Z,11.40
2022-11-28T10:14:58.296Z,10.77
2022-11-28T10:17:38.073Z,11.53
2022-11-28T10:20:13.489Z,12.50
2022-11-28T10:22:47.336Z,11.87
2022-11-28T10:25:21.293Z,11.13
2022-11-28T10:27:50.414Z,12.33
2022-11-28T10:30:23.527Z,12.10
2022-11-28T10:33:01.119Z,11.00
2022-11-28T10:35:40.131Z,12.37
2022-11-28T10:38:13.079Z,12.17
2022-11-28T10:43:23.252Z,11.10
2022-11-28T10:45:57.982Z,11.27
2022-11-28T10:48:39.998Z,11.60
2022-11-28T10:51:26.386Z,12.30
2022-11-28T10:54:06.049Z,11.97
2022-11-28T10:56:41.376Z,11.87
2022-11-28T10:59:20.078Z,12.23
2022-11-28T11:01:50.457Z,12.50
2022-11-28T11:04:21.606Z,11.53
2022-11-28T11:07:10.155Z,12.60
2022-11-28T11:09:41.793Z,11.73
2022-11-28T11:12:20.577Z,9.47
2022-11-28T11:14:48.832Z,12.67
2022-11-28T11:17:36.336Z,12.53
2022-11-28T11:20:35.162Z,12.10
2022-11-28T11:23:14.507Z,13.23
2022-11-28T11:25:49.755Z,12.70
2022-11-28T11:28:40.545Z,12.10
2022-11-28T11:31:18.553Z,10.90
2022-11-28T11:33:47.067Z,13.27
2022-11-28T11:36:25.302Z,11.20
2022-11-28T11:39:07.370Z,12.00
2022-11-28T11:41:35.723Z,12.83
2022-11-28T11:44:27.950Z,13.43
2022-11-28T11:46:57.523Z,12.00
2022-11-28T11:49:31.179Z,13.30
2022-11-28T11:52:00.677Z,12.93
2022-11-28T11:54:30.338Z,12.27
2022-11-28T11:57:24.889Z,11.87
2022-11-28T11:59:52.730Z,12.93
2022-11-28T12:02:26.214Z,13.97
2022-11-28T12:05:01.211Z,11.73
2022-11-28T12:07:39.669Z,13.03
2022-11-28T12:10:16.480Z,12.63
2022-11-28T12:12:44.953Z,13.33
2022-11-28T12:15:30.715Z,14.53
2022-11-28T12:18:13.330Z,11.40
2022-11-28T12:20:57.005Z,13.03
2022-11-28T12:23:41.970Z,13.87
2022-11-28T12:26:20.039Z,13.10
2022-11-28T12:29:01.771Z,12.07
2022-11-28T12:31:41.354Z,13.63
2022-11-28T12:34:19.245Z,12.17
2022-11-28T12:36:56.590Z,13.97
2022-11-28T12:39:36.587Z,13.50
2022-11-28T12:42:27.097Z,13.27
2022-11-28T12:45:12.628Z,12.60
2022-11-28T12:47:48.691Z,13.13
2022-11-28T12:50:27.236Z,13.50
2022-11-28T12:53:05.562Z,13.10
2022-11-28T12:55:40.891Z,12.17
2022-11-28T12:58:20.951Z,14.87
2022-11-28T13:00:56.439Z,12.83
2022-11-28T13:03:37.655Z,14.63
2022-11-28T13:06:20.057Z,13.80
2022-11-28T13:09:04.222Z,13.53
2022-11-28T13:11:44.351Z,12.50
2022-11-28T13:14:23.156Z,12.67
2022-11-28T13:16:53.513Z,12.97
2022-11-28T13:19:35.044Z,11.80
2022-11-28T13:22:09.913Z,13.10
2022-11-28T13:24:43.485Z,13.40
2022-11-28T13:27:22.094Z,15.20
2022-11-28T13:30:23.372Z,13.30
2022-11-28T13:32:59.625Z,11.30
2022-11-28T13:35:29.772Z,13.90
2022-11-28T13:49:14.563Z,11.07
2022-11-28T13:55:46.633Z,13.90
2022-11-28T13:58:22.423Z,14.43
2022-11-28T14:04:48.087Z,15.20
2022-11-28T14:07:25.051Z,15.50
2022-11-28T14:10:04.227Z,14.77
2022-11-28T14:12:40.361Z,14.37
2022-11-28T14:15:24.530Z,14.37
2022-11-28T14:18:25.093Z,15.50
2022-11-28T14:21:00.398Z,14.03
2022-11-28T14:23:35.963Z,13.80
2022-11-28T14:26:15.916Z,14.67
2022-11-28T14:28:46.198Z,14.23
2022-11-28T14:31:26.318Z,15.10
2022-11-28T14:33:59.494Z,13.63
2022-11-28T14:36:30.839Z,15.17
2022-11-28T14:39:05.435Z,15.43
2022-11-28T14:41:33.496Z,13.77
2022-11-28T14:44:38.734Z,14.23
2022-11-28T14:47:14.941Z,14.50
2022-11-28T14:49:43.009Z,14.87
2022-11-28T14:52:38.423Z,15.33
2022-11-28T14:55:16.052Z,14.37
2022-11-28T14:57:56.199Z,9.90
2022-11-28T15:00:26.910Z,14.77
2022-11-28T15:03:15.775Z,13.10
2022-11-28T15:05:49.429Z,13.80
2022-11-28T15:08:51.622Z,15.23
2022-11-28T15:11:35.216Z,14.90
2022-11-28T15:14:11.664Z,15.93
2022-11-28T15:16:49.913Z,14.67
2022-11-28T15:19:24.728Z,14.80
2022-11-28T15:21:54.429Z,14.47
2022-11-28T15:24:35.115Z,11.80
2022-11-28T15:27:23.625Z,12.50
2022-11-28T15:29:56.569Z,13.53
2022-11-28T15:32:28.096Z,14.50
2022-11-28T15:35:10.832Z,14.90
2022-11-28T15:37:41.130Z,15.30
2022-11-28T15:40:21.248Z,14.33
2022-11-28T15:42:50.754Z,16.17
2022-11-28T15:45:25.134Z,16.30
2022-11-28T15:47:54.548Z,16.10
2022-11-28T15:50:25.190Z,15.63
2022-11-28T15:52:58.189Z,15.50
2022-11-28T15:55:30.261Z,16.83
2022-11-28T15:58:19.760Z,15.87
2022-11-28T16:00:53.813Z,16.20
2022-11-28T16:03:25.793Z,16.67
2022-11-28T16:05:56.010Z,15.70
2022-11-28T16:08:32.033Z,17.97
2022-11-28T16:11:08.670Z,14.60
2022-11-28T16:13:40.507Z,17.70
2022-11-28T16:16:12.514Z,18.07
2022-11-28T16:18:46.245Z,14.83
2022-11-28T16:21:15.477Z,17.83
2022-11-28T16:23:43.500Z,16.03
2022-11-28T16:26:26.201Z,16.77
2022-11-28T16:29:03.640Z,14.97
2022-11-28T16:31:32.235Z,17.07
2022-11-28T16:34:01.883Z,16.57
2022-11-28T16:36:35.763Z,17.50
2022-11-28T16:39:13.561Z,15.90
2022-11-28T16:41:49.442Z,14.13
2022-11-28T16:44:22.295Z,16.23
2022-11-28T16:46:53.228Z,16.00
2022-11-28T16:49:36.436Z,17.40
2022-11-28T16:52:42.384Z,17.07
2022-11-28T16:55:49.304Z,17.20
2022-11-28T16:58:23.301Z,17.07
2022-11-28T17:01:04.815Z,18.13
2022-11-28T17:03:57.883Z,15.30
2022-11-28T17:06:28.621Z,17.10
2022-11-28T17:09:02.223Z,18.10
2022-11-28T17:11:32.916Z,18.30
2022-11-28T17:14:06.215Z,18.60
2022-11-28T17:16:38.264Z,19.33
2022-11-28T17:19:08.518Z,17.67
2022-11-28T17:21:41.385Z,17.00
2022-11-28T17:24:45.624Z,14.50
2022-11-28T17:27:15.503Z,19.70
2022-11-28T17:30:24.358Z,18.40
2022-11-28T17:33:00.216Z,16.87
2022-11-28T17:35:44.870Z,19.10
2022-11-28T17:38:13.133Z,19.57
2022-11-28T17:40:46.683Z,19.13
2022-11-28T17:43:18.125Z,19.10
2022-11-28T17:45:50.764Z,19.67
2022-11-28T17:48:20.499Z,19.77
2022-11-28T17:50:50.722Z,19.83
2022-11-28T17:53:30.829Z,19.60
2022-11-28T17:56:04.913Z,19.90
2022-11-28T17:58:33.080Z,16.80
2022-11-28T18:01:02.067Z,17.30
2022-11-28T18:03:41.006Z,17.67
2022-11-28T18:06:27.572Z,17.50
2022-11-28T18:08:55.639Z,18.70
2022-11-28T18:11:23.625Z,18.55
2022-11-28T18:13:51.684Z,17.60
2022-11-28T18:16:22.161Z,19.13
2022-11-28T18:18:51.835Z,20.50
2022-11-28T18:21:20.199Z,14.57
2022-11-28T18:23:50.690Z,18.50
2022-11-28T18:26:21.001Z,18.27
2022-11-28T18:28:49.015Z,18.83
2022-11-28T18:31:19.444Z,19.10
2022-11-28T18:33:47.747Z,17.03
2022-11-28T18:36:18.967Z,14.43
2022-11-28T18:38:47.211Z,17.03
2022-11-28T18:41:17.297Z,16.63
2022-11-28T18:43:45.741Z,16.67
2022-11-28T18:46:15.694Z,17.37
2022-11-28T18:48:45.014Z,18.73
2022-11-28T18:51:13.684Z,19.30
2022-11-28T18:53:44.268Z,18.83
2022-11-28T18:56:13.415Z,18.73
2022-11-28T18:58:43.286Z,17.30
2022-11-28T19:01:12.960Z,19.53
2022-11-28T19:03:41.782Z,18.30
2022-11-28T19:06:11.881Z,16.03
2022-11-28T19:08:40.693Z,18.00
2022-11-28T19:11:14.347Z,17.50
2022-11-28T19:13:43.451Z,17.77
2022-11-28T19:16:13.288Z,16.80
2022-11-28T19:18:41.926Z,16.73
2022-11-28T19:21:12.361Z,18.50
2022-11-28T19:24:51.037Z,16.77
2022-11-28T19:27:20.407Z,17.47
2022-11-28T19:29:48.480Z,15.83
2022-11-28T19:32:16.994Z,17.97
2022-11-28T19:34:44.990Z,17.40
2022-11-28T19:37:12.954Z,18.80
2022-11-28T19:39:41.057Z,17.83
2022-11-28T19:42:09.238Z,18.57
2022-11-28T19:44:38.579Z,18.67
2022-11-28T19:47:06.821Z,18.70
2022-11-28T19:49:34.985Z,17.67
2022-11-28T19:52:03.006Z,18.47
2022-11-28T19:58:19.030Z,18.60
2022-11-28T20:00:48.751Z,18.77
2022-11-28T20:03:16.751Z,17.70
2022-11-28T20:05:44.748Z,18.47
2022-11-28T20:08:12.885Z,18.20
2022-11-28T20:10:40.971Z,17.07
2022-11-28T20:13:08.930Z,17.40
2022-11-28T20:15:37.368Z,17.63
2022-11-28T20:18:06.894Z,17.23
2022-11-28T20:20:35.319Z,17.50
2022-11-28T20:23:03.566Z,16.00
2022-11-28T20:25:33.192Z,16.73
2022-11-28T20:28:01.166Z,16.40
2022-11-28T20:30:29.155Z,16.67
2022-11-28T20:32:57.163Z,17.37
2022-11-28T20:35:27.522Z,16.80
2022-11-28T20:37:55.523Z,17.43
2022-11-28T20:40:24.084Z,16.00
2022-11-28T20:42:52.279Z,16.50
2022-11-28T20:45:20.267Z,18.23
2022-11-28T20:47:49.945Z,16.30
2022-11-28T20:50:18.334Z,15.77
2022-11-28T20:52:54.121Z,17.40
2022-11-28T20:55:24.423Z,17.50
2022-11-28T20:58:57.165Z,17.90
2022-11-28T21:01:27.632Z,15.23
2022-11-28T21:07:24.017Z,16.40
2022-11-28T21:17:17.673Z,17.30
2022-11-28T21:23:34.402Z,16.47
2022-11-28T21:26:07.101Z,16.53
2022-11-28T21:31:48.191Z,18.03
2022-11-28T21:34:18.223Z,15.37
2022-11-28T21:36:46.757Z,14.73
2022-11-28T21:39:20.215Z,14.57
2022-11-28T21:41:51.195Z,16.50
2022-11-28T21:44:19.602Z,16.63
2022-11-28T21:46:48.026Z,15.23
2022-11-28T21:49:17.218Z,17.10
2022-11-28T21:51:45.600Z,13.40
2022-11-28T21:54:14.519Z,17.23
2022-11-28T21:56:43.056Z,16.17
2022-11-28T21:59:12.944Z,14.87
2022-11-28T22:01:41.541Z,15.00
2022-11-28T22:04:11.749Z,15.73
2022-11-28T22:06:39.873Z,15.97
2022-11-28T22:09:09.864Z,14.70
2022-11-28T22:11:39.410Z,16.23
2022-11-28T22:14:07.658Z,15.03
2022-11-28T22:16:37.480Z,15.60
2022-11-28T22:19:06.865Z,15.00
2022-11-28T22:21:55.044Z,15.60
2022-11-28T22:24:24.722Z,15.80
2022-11-28T22:26:53.809Z,15.40
2022-11-28T22:29:22.167Z,15.83
2022-11-28T22:31:51.983Z,17.03
2022-11-28T22:34:20.548Z,16.00
2022-11-28T22:36:48.659Z,15.50
2022-11-28T22:39:16.969Z,15.87
2022-11-28T22:41:45.184Z,13.77
2022-11-28T22:44:13.347Z,15.13
2022-11-28T22:46:41.406Z,14.33
2022-11-28T22:49:11.729Z,15.00
2022-11-28T22:51:40.760Z,15.97
2022-11-28T22:54:09.328Z,14.57
2022-11-28T22:56:37.594Z,14.27
2022-11-28T22:59:06.042Z,15.60
2022-11-28T23:01:35.228Z,15.00
2022-11-28T23:04:04.132Z,15.10
2022-11-28T23:06:35.542Z,16.10
2022-11-28T23:09:06.617Z,15.07
2022-11-28T23:11:36.428Z,15.20
2022-11-28T23:14:04.984Z,15.37
2022-11-28T23:16:34.817Z,15.90
2022-11-28T23:19:06.238Z,16.13
2022-11-28T23:21:38.167Z,14.60
2022-11-28T23:24:07.282Z,14.23
2022-11-28T23:26:36.136Z,14.93
2022-11-28T23:29:06.219Z,15.53
2022-11-28T23:31:36.412Z,13.90
2022-11-28T23:34:04.849Z,15.50
2022-11-28T23:36:41.699Z,16.33
2022-11-28T23:39:12.795Z,15.53
2022-11-28T23:41:41.498Z,14.03
2022-11-28T23:44:11.990Z,11.20
2022-11-28T23:46:40.783Z,16.17
2022-11-28T23:49:09.578Z,15.50
2022-11-28T23:51:40.224Z,14.90
2022-11-28T23:54:08.737Z,17.00
2022-11-28T23:56:38.176Z,16.33
2022-11-28T23:59:08.526Z,15.50
